sensor_id;sensor_type;location;lat;lon;timestamp;P1;durP1;ratioP1;P2;durP2;ratioP2
43744;SDS011;29359;53.048;8.732;2024-03-02T00:02:01;18.10;;;11.68;;
43744;SDS011;29359;53.048;8.732;2024-03-02T00:04:05;17.25;;;10.75;;
43744;SDS011;29359;53.048;8.732;2024-03-02T00:06:09;16.52;;;10.98;;
43744;SDS011;29359;53.048;8.732;2024-03-02T00:08:11;18.25;;;11.68;;
43744;SDS011;29359;53.048;8.732;2024-03-02T00:10:21;17.05;;;10.77;;
43744;SDS011;29359;53.048;8.732;2024-03-02T00:12:30;14.07;;;10.55;;
43744;SDS011;29359;53.048;8.732;2024-03-02T00:14:32;15.65;;;10.68;;
43744;SDS011;29359;53.048;8.732;2024-03-02T00:16:33;16.25;;;11.55;;
43744;SDS011;29359;53.048;8.732;2024-03-02T00:18:35;15.10;;;10.60;;
43744;SDS011;29359;53.048;8.732;2024-03-02T00:20:38;15.25;;;10.15;;
43744;SDS011;29359;53.048;8.732;2024-03-02T00:22:40;16.10;;;10.75;;
43744;SDS011;29359;53.048;8.732;2024-03-02T00:24:42;17.27;;;11.07;;
43744;SDS011;29359;53.048;8.732;2024-03-02T00:26:47;16.10;;;10.55;;
43744;SDS011;29359;53.048;8.732;2024-03-02T00:28:49;16.42;;;11.63;;
43744;SDS011;29359;53.048;8.732;2024-03-02T00:33:07;18.00;;;12.02;;
43744;SDS011;29359;53.048;8.732;2024-03-02T00:35:09;16.58;;;11.27;;
43744;SDS011;29359;53.048;8.732;2024-03-02T00:37:11;15.68;;;11.23;;
43744;SDS011;29359;53.048;8.732;2024-03-02T00:39:14;16.45;;;10.73;;
43744;SDS011;29359;53.048;8.732;2024-03-02T00:41:31;20.75;;;11.85;;
43744;SDS011;29359;53.048;8.732;2024-03-02T00:43:42;16.05;;;11.07;;
43744;SDS011;29359;53.048;8.732;2024-03-02T00:45:48;14.05;;;10.30;;
43744;SDS011;29359;53.048;8.732;2024-03-02T00:47:50;15.57;;;11.00;;
43744;SDS011;29359;53.048;8.732;2024-03-02T00:49:53;14.52;;;10.70;;
43744;SDS011;29359;53.048;8.732;2024-03-02T00:51:54;14.90;;;10.48;;
43744;SDS011;29359;53.048;8.732;2024-03-02T00:53:58;13.05;;;9.77;;
43744;SDS011;29359;53.048;8.732;2024-03-02T00:56:02;15.00;;;10.32;;
43744;SDS011;29359;53.048;8.732;2024-03-02T00:58:04;16.95;;;11.60;;
43744;SDS011;29359;53.048;8.732;2024-03-02T01:00:06;16.63;;;10.70;;
43744;SDS011;29359;53.048;8.732;2024-03-02T01:02:11;17.00;;;11.07;;
43744;SDS011;29359;53.048;8.732;2024-03-02T01:04:13;13.00;;;10.02;;
43744;SDS011;29359;53.048;8.732;2024-03-02T01:06:15;13.85;;;10.05;;
43744;SDS011;29359;53.048;8.732;2024-03-02T01:08:18;13.35;;;10.13;;
43744;SDS011;29359;53.048;8.732;2024-03-02T01:10:20;14.98;;;10.65;;
43744;SDS011;29359;53.048;8.732;2024-03-02T01:12:22;17.33;;;11.13;;
43744;SDS011;29359;53.048;8.732;2024-03-02T01:14:23;14.48;;;10.65;;
43744;SDS011;29359;53.048;8.732;2024-03-02T01:16:25;17.25;;;10.60;;
43744;SDS011;29359;53.048;8.732;2024-03-02T01:18:27;15.10;;;10.20;;
43744;SDS011;29359;53.048;8.732;2024-03-02T01:20:29;15.65;;;10.35;;
43744;SDS011;29359;53.048;8.732;2024-03-02T01:22:30;13.02;;;10.18;;
43744;SDS011;29359;53.048;8.732;2024-03-02T01:24:32;16.85;;;11.05;;
43744;SDS011;29359;53.048;8.732;2024-03-02T01:26:34;15.35;;;10.68;;
43744;SDS011;29359;53.048;8.732;2024-03-02T01:28:36;14.57;;;10.30;;
43744;SDS011;29359;53.048;8.732;2024-03-02T01:30:38;16.83;;;10.93;;
43744;SDS011;29359;53.048;8.732;2024-03-02T01:32:39;13.00;;;9.60;;
43744;SDS011;29359;53.048;8.732;2024-03-02T01:34:41;15.40;;;10.45;;
43744;SDS011;29359;53.048;8.732;2024-03-02T01:36:43;13.43;;;9.77;;
43744;SDS011;29359;53.048;8.732;2024-03-02T01:38:45;16.83;;;10.68;;
43744;SDS011;29359;53.048;8.732;2024-03-02T01:40:46;14.52;;;10.02;;
43744;SDS011;29359;53.048;8.732;2024-03-02T01:42:48;17.40;;;9.82;;
43744;SDS011;29359;53.048;8.732;2024-03-02T01:44:50;12.93;;;9.90;;
43744;SDS011;29359;53.048;8.732;2024-03-02T01:46:52;13.52;;;9.98;;
43744;SDS011;29359;53.048;8.732;2024-03-02T01:48:54;13.75;;;9.75;;
43744;SDS011;29359;53.048;8.732;2024-03-02T01:50:56;13.55;;;10.18;;
43744;SDS011;29359;53.048;8.732;2024-03-02T01:52:58;14.15;;;10.13;;
43744;SDS011;29359;53.048;8.732;2024-03-02T01:55:01;13.32;;;9.48;;
43744;SDS011;29359;53.048;8.732;2024-03-02T01:57:03;14.63;;;9.52;;
43744;SDS011;29359;53.048;8.732;2024-03-02T01:59:05;14.57;;;9.98;;
43744;SDS011;29359;53.048;8.732;2024-03-02T02:01:07;13.32;;;9.85;;
43744;SDS011;29359;53.048;8.732;2024-03-02T02:03:09;14.40;;;9.45;;
43744;SDS011;29359;53.048;8.732;2024-03-02T02:05:11;19.27;;;9.85;;
43744;SDS011;29359;53.048;8.732;2024-03-02T02:07:12;11.85;;;9.57;;
43744;SDS011;29359;53.048;8.732;2024-03-02T02:09:16;13.40;;;9.18;;
43744;SDS011;29359;53.048;8.732;2024-03-02T02:11:19;15.07;;;10.05;;
43744;SDS011;29359;53.048;8.732;2024-03-02T02:13:21;13.20;;;9.57;;
43744;SDS011;29359;53.048;8.732;2024-03-02T02:15:29;13.75;;;10.25;;
43744;SDS011;29359;53.048;8.732;2024-03-02T02:19:34;15.13;;;9.30;;
43744;SDS011;29359;53.048;8.732;2024-03-02T02:21:35;13.25;;;9.57;;
43744;SDS011;29359;53.048;8.732;2024-03-02T02:23:37;13.45;;;9.38;;
43744;SDS011;29359;53.048;8.732;2024-03-02T02:25:39;11.48;;;9.45;;
43744;SDS011;29359;53.048;8.732;2024-03-02T02:27:41;14.85;;;10.00;;
43744;SDS011;29359;53.048;8.732;2024-03-02T02:29:42;12.68;;;9.23;;
43744;SDS011;29359;53.048;8.732;2024-03-02T02:31:44;14.43;;;9.75;;
43744;SDS011;29359;53.048;8.732;2024-03-02T02:33:46;15.93;;;9.90;;
43744;SDS011;29359;53.048;8.732;2024-03-02T02:35:48;13.90;;;9.55;;
43744;SDS011;29359;53.048;8.732;2024-03-02T02:37:49;13.98;;;9.90;;
43744;SDS011;29359;53.048;8.732;2024-03-02T02:39:53;13.02;;;9.20;;
43744;SDS011;29359;53.048;8.732;2024-03-02T02:41:54;14.75;;;9.77;;
43744;SDS011;29359;53.048;8.732;2024-03-02T02:43:56;13.48;;;9.40;;
43744;SDS011;29359;53.048;8.732;2024-03-02T02:45:58;13.57;;;9.68;;
43744;SDS011;29359;53.048;8.732;2024-03-02T02:48:00;13.38;;;10.30;;
43744;SDS011;29359;53.048;8.732;2024-03-02T02:50:03;13.95;;;10.07;;
43744;SDS011;29359;53.048;8.732;2024-03-02T02:52:06;11.57;;;9.25;;
43744;SDS011;29359;53.048;8.732;2024-03-02T02:54:07;15.77;;;10.57;;
43744;SDS011;29359;53.048;8.732;2024-03-02T02:56:09;13.27;;;9.90;;
43744;SDS011;29359;53.048;8.732;2024-03-02T02:58:11;14.38;;;9.80;;
43744;SDS011;29359;53.048;8.732;2024-03-02T03:00:13;12.48;;;9.65;;
43744;SDS011;29359;53.048;8.732;2024-03-02T03:02:18;14.90;;;10.27;;
43744;SDS011;29359;53.048;8.732;2024-03-02T03:04:20;13.10;;;10.00;;
43744;SDS011;29359;53.048;8.732;2024-03-02T03:06:21;16.33;;;11.02;;
43744;SDS011;29359;53.048;8.732;2024-03-02T03:08:23;15.65;;;10.27;;
43744;SDS011;29359;53.048;8.732;2024-03-02T03:10:25;13.07;;;9.48;;
43744;SDS011;29359;53.048;8.732;2024-03-02T03:12:29;17.83;;;10.48;;
43744;SDS011;29359;53.048;8.732;2024-03-02T03:14:31;13.05;;;9.85;;
43744;SDS011;29359;53.048;8.732;2024-03-02T03:16:33;14.95;;;10.57;;
43744;SDS011;29359;53.048;8.732;2024-03-02T03:18:34;14.20;;;10.20;;
43744;SDS011;29359;53.048;8.732;2024-03-02T03:20:36;16.00;;;10.55;;
43744;SDS011;29359;53.048;8.732;2024-03-02T03:22:38;15.02;;;10.30;;
43744;SDS011;29359;53.048;8.732;2024-03-02T03:24:40;14.45;;;10.77;;
43744;SDS011;29359;53.048;8.732;2024-03-02T03:26:42;14.57;;;10.98;;
43744;SDS011;29359;53.048;8.732;2024-03-02T03:28:44;17.05;;;11.35;;
43744;SDS011;29359;53.048;8.732;2024-03-02T03:30:45;15.80;;;11.15;;
43744;SDS011;29359;53.048;8.732;2024-03-02T03:32:47;18.52;;;11.70;;
43744;SDS011;29359;53.048;8.732;2024-03-02T03:34:52;17.15;;;11.65;;
43744;SDS011;29359;53.048;8.732;2024-03-02T03:36:53;18.73;;;13.18;;
43744;SDS011;29359;53.048;8.732;2024-03-02T03:38:55;19.33;;;13.05;;
43744;SDS011;29359;53.048;8.732;2024-03-02T03:40:57;20.70;;;12.13;;
43744;SDS011;29359;53.048;8.732;2024-03-02T03:42:59;17.45;;;11.95;;
43744;SDS011;29359;53.048;8.732;2024-03-02T03:45:01;19.45;;;12.63;;
43744;SDS011;29359;53.048;8.732;2024-03-02T03:47:03;16.85;;;12.43;;
43744;SDS011;29359;53.048;8.732;2024-03-02T03:49:05;19.83;;;12.52;;
43744;SDS011;29359;53.048;8.732;2024-03-02T03:51:07;17.90;;;12.07;;
43744;SDS011;29359;53.048;8.732;2024-03-02T03:53:09;18.25;;;12.48;;
43744;SDS011;29359;53.048;8.732;2024-03-02T03:55:11;17.50;;;11.65;;
43744;SDS011;29359;53.048;8.732;2024-03-02T03:57:12;19.63;;;13.18;;
43744;SDS011;29359;53.048;8.732;2024-03-02T03:59:14;17.60;;;12.73;;
43744;SDS011;29359;53.048;8.732;2024-03-02T04:01:16;16.48;;;12.05;;
43744;SDS011;29359;53.048;8.732;2024-03-02T04:03:18;16.75;;;12.15;;
43744;SDS011;29359;53.048;8.732;2024-03-02T04:05:20;18.50;;;13.07;;
43744;SDS011;29359;53.048;8.732;2024-03-02T04:07:21;17.95;;;12.02;;
43744;SDS011;29359;53.048;8.732;2024-03-02T04:09:23;18.48;;;12.45;;
43744;SDS011;29359;53.048;8.732;2024-03-02T04:11:25;20.45;;;11.95;;
43744;SDS011;29359;53.048;8.732;2024-03-02T04:13:27;17.58;;;12.55;;
43744;SDS011;29359;53.048;8.732;2024-03-02T04:15:28;21.15;;;12.75;;
43744;SDS011;29359;53.048;8.732;2024-03-02T04:17:31;22.73;;;14.30;;
43744;SDS011;29359;53.048;8.732;2024-03-02T04:19:34;22.55;;;13.10;;
43744;SDS011;29359;53.048;8.732;2024-03-02T04:21:35;19.15;;;12.60;;
43744;SDS011;29359;53.048;8.732;2024-03-02T04:23:37;18.02;;;12.63;;
43744;SDS011;29359;53.048;8.732;2024-03-02T04:25:39;21.20;;;13.70;;
43744;SDS011;29359;53.048;8.732;2024-03-02T04:27:41;20.00;;;13.45;;
43744;SDS011;29359;53.048;8.732;2024-03-02T04:29:43;17.67;;;12.23;;
43744;SDS011;29359;53.048;8.732;2024-03-02T04:31:45;20.38;;;12.38;;
43744;SDS011;29359;53.048;8.732;2024-03-02T04:33:46;18.33;;;12.00;;
43744;SDS011;29359;53.048;8.732;2024-03-02T04:35:48;17.25;;;12.20;;
43744;SDS011;29359;53.048;8.732;2024-03-02T04:37:50;18.70;;;12.65;;
43744;SDS011;29359;53.048;8.732;2024-03-02T04:39:52;15.43;;;11.20;;
43744;SDS011;29359;53.048;8.732;2024-03-02T04:41:54;15.20;;;11.38;;
43744;SDS011;29359;53.048;8.732;2024-03-02T04:43:56;14.30;;;11.27;;
43744;SDS011;29359;53.048;8.732;2024-03-02T04:45:58;13.48;;;10.55;;
43744;SDS011;29359;53.048;8.732;2024-03-02T04:48:00;13.85;;;10.88;;
43744;SDS011;29359;53.048;8.732;2024-03-02T04:50:02;14.35;;;10.57;;
43744;SDS011;29359;53.048;8.732;2024-03-02T04:52:04;14.48;;;10.77;;
43744;SDS011;29359;53.048;8.732;2024-03-02T04:54:06;15.93;;;10.95;;
43744;SDS011;29359;53.048;8.732;2024-03-02T04:56:07;15.00;;;10.27;;
43744;SDS011;29359;53.048;8.732;2024-03-02T04:58:40;13.35;;;10.07;;
43744;SDS011;29359;53.048;8.732;2024-03-02T05:00:42;19.02;;;10.45;;
43744;SDS011;29359;53.048;8.732;2024-03-02T05:02:44;13.30;;;10.40;;
43744;SDS011;29359;53.048;8.732;2024-03-02T05:04:46;12.48;;;9.95;;
43744;SDS011;29359;53.048;8.732;2024-03-02T05:06:49;13.65;;;10.32;;
43744;SDS011;29359;53.048;8.732;2024-03-02T05:08:54;18.65;;;10.95;;
43744;SDS011;29359;53.048;8.732;2024-03-02T05:10:56;14.25;;;10.40;;
43744;SDS011;29359;53.048;8.732;2024-03-02T05:13:18;12.63;;;9.90;;
43744;SDS011;29359;53.048;8.732;2024-03-02T05:15:19;14.38;;;10.35;;
43744;SDS011;29359;53.048;8.732;2024-03-02T05:17:23;12.90;;;10.10;;
43744;SDS011;29359;53.048;8.732;2024-03-02T05:19:24;14.55;;;10.18;;
43744;SDS011;29359;53.048;8.732;2024-03-02T05:21:26;14.48;;;10.32;;
43744;SDS011;29359;53.048;8.732;2024-03-02T05:23:28;15.18;;;9.90;;
43744;SDS011;29359;53.048;8.732;2024-03-02T05:25:30;13.40;;;9.32;;
43744;SDS011;29359;53.048;8.732;2024-03-02T05:27:32;12.75;;;9.98;;
43744;SDS011;29359;53.048;8.732;2024-03-02T05:29:34;11.18;;;9.63;;
43744;SDS011;29359;53.048;8.732;2024-03-02T05:31:36;11.20;;;9.32;;
43744;SDS011;29359;53.048;8.732;2024-03-02T05:33:38;13.60;;;10.15;;
43744;SDS011;29359;53.048;8.732;2024-03-02T05:35:40;12.35;;;9.82;;
43744;SDS011;29359;53.048;8.732;2024-03-02T05:37:41;12.85;;;9.98;;
43744;SDS011;29359;53.048;8.732;2024-03-02T05:39:43;12.73;;;9.52;;
43744;SDS011;29359;53.048;8.732;2024-03-02T05:41:45;12.65;;;9.80;;
43744;SDS011;29359;53.048;8.732;2024-03-02T05:43:47;14.63;;;9.20;;
43744;SDS011;29359;53.048;8.732;2024-03-02T05:45:48;14.73;;;9.68;;
43744;SDS011;29359;53.048;8.732;2024-03-02T05:47:50;13.52;;;10.10;;
43744;SDS011;29359;53.048;8.732;2024-03-02T05:49:52;13.77;;;9.75;;
43744;SDS011;29359;53.048;8.732;2024-03-02T05:51:54;13.73;;;9.93;;
43744;SDS011;29359;53.048;8.732;2024-03-02T05:53:56;16.30;;;9.75;;
43744;SDS011;29359;53.048;8.732;2024-03-02T05:55:58;12.95;;;9.98;;
43744;SDS011;29359;53.048;8.732;2024-03-02T05:58:02;10.93;;;9.02;;
43744;SDS011;29359;53.048;8.732;2024-03-02T06:00:04;13.27;;;10.15;;
43744;SDS011;29359;53.048;8.732;2024-03-02T06:02:09;11.63;;;9.23;;
43744;SDS011;29359;53.048;8.732;2024-03-02T06:04:11;14.77;;;10.15;;
43744;SDS011;29359;53.048;8.732;2024-03-02T06:06:13;12.02;;;8.85;;
43744;SDS011;29359;53.048;8.732;2024-03-02T06:08:14;13.32;;;10.07;;
43744;SDS011;29359;53.048;8.732;2024-03-02T06:10:16;14.35;;;9.60;;
43744;SDS011;29359;53.048;8.732;2024-03-02T06:12:18;13.05;;;9.77;;
43744;SDS011;29359;53.048;8.732;2024-03-02T06:14:20;11.82;;;9.27;;
43744;SDS011;29359;53.048;8.732;2024-03-02T06:16:22;15.80;;;9.32;;
43744;SDS011;29359;53.048;8.732;2024-03-02T06:18:24;10.65;;;8.60;;
43744;SDS011;29359;53.048;8.732;2024-03-02T06:20:26;17.30;;;9.70;;
43744;SDS011;29359;53.048;8.732;2024-03-02T06:22:28;12.57;;;9.68;;
43744;SDS011;29359;53.048;8.732;2024-03-02T06:24:30;13.07;;;9.65;;
43744;SDS011;29359;53.048;8.732;2024-03-02T06:26:31;14.40;;;10.10;;
43744;SDS011;29359;53.048;8.732;2024-03-02T06:28:33;15.15;;;10.32;;
43744;SDS011;29359;53.048;8.732;2024-03-02T06:30:37;12.13;;;9.73;;
43744;SDS011;29359;53.048;8.732;2024-03-02T06:32:39;13.65;;;9.57;;
43744;SDS011;29359;53.048;8.732;2024-03-02T06:34:41;19.58;;;10.48;;
43744;SDS011;29359;53.048;8.732;2024-03-02T06:36:43;13.68;;;9.95;;
43744;SDS011;29359;53.048;8.732;2024-03-02T06:38:44;13.85;;;9.95;;
43744;SDS011;29359;53.048;8.732;2024-03-02T06:40:46;12.82;;;9.45;;
43744;SDS011;29359;53.048;8.732;2024-03-02T06:42:48;12.57;;;10.18;;
43744;SDS011;29359;53.048;8.732;2024-03-02T06:44:53;17.02;;;10.60;;
43744;SDS011;29359;53.048;8.732;2024-03-02T06:46:55;13.75;;;10.35;;
43744;SDS011;29359;53.048;8.732;2024-03-02T06:48:56;15.00;;;10.68;;
43744;SDS011;29359;53.048;8.732;2024-03-02T06:50:58;12.82;;;9.98;;
43744;SDS011;29359;53.048;8.732;2024-03-02T06:53:00;15.18;;;10.77;;
43744;SDS011;29359;53.048;8.732;2024-03-02T06:55:02;13.38;;;10.13;;
43744;SDS011;29359;53.048;8.732;2024-03-02T06:57:05;15.32;;;10.10;;
43744;SDS011;29359;53.048;8.732;2024-03-02T06:59:07;13.48;;;9.95;;
43744;SDS011;29359;53.048;8.732;2024-03-02T07:01:09;13.95;;;10.18;;
43744;SDS011;29359;53.048;8.732;2024-03-02T07:03:11;18.52;;;11.90;;
43744;SDS011;29359;53.048;8.732;2024-03-02T07:05:14;18.45;;;11.23;;
43744;SDS011;29359;53.048;8.732;2024-03-02T07:07:15;13.50;;;10.98;;
43744;SDS011;29359;53.048;8.732;2024-03-02T07:09:17;17.23;;;10.68;;
43744;SDS011;29359;53.048;8.732;2024-03-02T07:11:19;13.75;;;10.20;;
43744;SDS011;29359;53.048;8.732;2024-03-02T07:13:21;19.20;;;10.63;;
43744;SDS011;29359;53.048;8.732;2024-03-02T07:15:22;14.30;;;11.55;;
43744;SDS011;29359;53.048;8.732;2024-03-02T07:17:30;13.93;;;10.40;;
43744;SDS011;29359;53.048;8.732;2024-03-02T07:19:33;21.23;;;11.07;;
43744;SDS011;29359;53.048;8.732;2024-03-02T07:21:36;16.52;;;11.80;;
43744;SDS011;29359;53.048;8.732;2024-03-02T07:23:38;17.55;;;11.57;;
43744;SDS011;29359;53.048;8.732;2024-03-02T07:25:40;18.20;;;12.25;;
43744;SDS011;29359;53.048;8.732;2024-03-02T07:27:45;19.02;;;11.18;;
43744;SDS011;29359;53.048;8.732;2024-03-02T07:29:46;15.50;;;11.55;;
43744;SDS011;29359;53.048;8.732;2024-03-02T07:31:48;16.65;;;12.38;;
43744;SDS011;29359;53.048;8.732;2024-03-02T07:33:50;19.30;;;12.13;;
43744;SDS011;29359;53.048;8.732;2024-03-02T07:35:56;15.57;;;11.77;;
43744;SDS011;29359;53.048;8.732;2024-03-02T07:38:00;16.88;;;11.25;;
43744;SDS011;29359;53.048;8.732;2024-03-02T07:40:03;17.27;;;11.80;;
43744;SDS011;29359;53.048;8.732;2024-03-02T07:42:05;20.50;;;12.68;;
43744;SDS011;29359;53.048;8.732;2024-03-02T07:44:07;18.70;;;12.73;;
43744;SDS011;29359;53.048;8.732;2024-03-02T07:46:09;18.27;;;12.43;;
43744;SDS011;29359;53.048;8.732;2024-03-02T07:48:11;17.63;;;11.95;;
43744;SDS011;29359;53.048;8.732;2024-03-02T07:50:13;14.70;;;11.68;;
43744;SDS011;29359;53.048;8.732;2024-03-02T07:52:14;24.77;;;12.77;;
43744;SDS011;29359;53.048;8.732;2024-03-02T07:54:16;21.33;;;12.40;;
43744;SDS011;29359;53.048;8.732;2024-03-02T07:56:18;17.48;;;12.32;;
43744;SDS011;29359;53.048;8.732;2024-03-02T07:58:23;17.17;;;12.43;;
43744;SDS011;29359;53.048;8.732;2024-03-02T08:00:25;17.98;;;12.07;;
43744;SDS011;29359;53.048;8.732;2024-03-02T08:02:28;15.63;;;11.85;;
43744;SDS011;29359;53.048;8.732;2024-03-02T08:04:30;17.88;;;12.57;;
43744;SDS011;29359;53.048;8.732;2024-03-02T08:06:32;20.95;;;12.98;;
43744;SDS011;29359;53.048;8.732;2024-03-02T08:08:34;18.20;;;12.75;;
43744;SDS011;29359;53.048;8.732;2024-03-02T08:10:35;19.15;;;12.32;;
43744;SDS011;29359;53.048;8.732;2024-03-02T08:12:39;22.60;;;12.75;;
43744;SDS011;29359;53.048;8.732;2024-03-02T08:14:41;20.23;;;12.90;;
43744;SDS011;29359;53.048;8.732;2024-03-02T08:16:42;18.13;;;12.68;;
43744;SDS011;29359;53.048;8.732;2024-03-02T08:18:45;20.77;;;13.13;;
43744;SDS011;29359;53.048;8.732;2024-03-02T08:20:47;18.45;;;12.90;;
43744;SDS011;29359;53.048;8.732;2024-03-02T08:22:49;18.52;;;12.75;;
43744;SDS011;29359;53.048;8.732;2024-03-02T08:24:52;17.48;;;12.35;;
43744;SDS011;29359;53.048;8.732;2024-03-02T08:26:54;17.40;;;11.88;;
43744;SDS011;29359;53.048;8.732;2024-03-02T08:28:55;20.80;;;13.00;;
43744;SDS011;29359;53.048;8.732;2024-03-02T08:30:57;19.75;;;12.85;;
43744;SDS011;29359;53.048;8.732;2024-03-02T08:32:59;22.27;;;12.93;;
43744;SDS011;29359;53.048;8.732;2024-03-02T08:35:01;16.98;;;12.70;;
43744;SDS011;29359;53.048;8.732;2024-03-02T08:37:03;21.60;;;12.88;;
43744;SDS011;29359;53.048;8.732;2024-03-02T08:39:05;17.33;;;12.25;;
43744;SDS011;29359;53.048;8.732;2024-03-02T08:41:09;17.45;;;12.70;;
43744;SDS011;29359;53.048;8.732;2024-03-02T08:43:10;25.67;;;14.45;;
43744;SDS011;29359;53.048;8.732;2024-03-02T08:45:12;19.58;;;13.55;;
43744;SDS011;29359;53.048;8.732;2024-03-02T08:47:14;22.75;;;13.23;;
43744;SDS011;29359;53.048;8.732;2024-03-02T08:49:16;17.70;;;13.55;;
43744;SDS011;29359;53.048;8.732;2024-03-02T08:51:19;19.63;;;13.80;;
43744;SDS011;29359;53.048;8.732;2024-03-02T08:53:21;20.02;;;13.55;;
43744;SDS011;29359;53.048;8.732;2024-03-02T08:55:23;24.70;;;13.75;;
43744;SDS011;29359;53.048;8.732;2024-03-02T08:57:26;18.98;;;13.07;;
43744;SDS011;29359;53.048;8.732;2024-03-02T08:59:28;20.38;;;13.43;;
43744;SDS011;29359;53.048;8.732;2024-03-02T09:01:29;18.60;;;12.75;;
43744;SDS011;29359;53.048;8.732;2024-03-02T09:03:31;22.77;;;13.35;;
43744;SDS011;29359;53.048;8.732;2024-03-02T09:05:35;18.17;;;12.57;;
43744;SDS011;29359;53.048;8.732;2024-03-02T09:07:36;18.98;;;13.45;;
43744;SDS011;29359;53.048;8.732;2024-03-02T09:09:39;17.20;;;11.88;;
43744;SDS011;29359;53.048;8.732;2024-03-02T09:11:41;18.70;;;11.90;;
43744;SDS011;29359;53.048;8.732;2024-03-02T09:13:43;15.95;;;11.77;;
43744;SDS011;29359;53.048;8.732;2024-03-02T09:15:45;18.20;;;12.20;;
43744;SDS011;29359;53.048;8.732;2024-03-02T09:17:47;16.65;;;12.50;;
43744;SDS011;29359;53.048;8.732;2024-03-02T09:19:49;17.02;;;11.45;;
43744;SDS011;29359;53.048;8.732;2024-03-02T09:21:54;16.55;;;11.10;;
43744;SDS011;29359;53.048;8.732;2024-03-02T09:23:57;17.52;;;12.18;;
43744;SDS011;29359;53.048;8.732;2024-03-02T09:25:59;17.80;;;11.77;;
43744;SDS011;29359;53.048;8.732;2024-03-02T09:28:01;16.52;;;11.90;;
43744;SDS011;29359;53.048;8.732;2024-03-02T09:30:05;15.43;;;11.40;;
43744;SDS011;29359;53.048;8.732;2024-03-02T09:32:12;15.40;;;11.00;;
43744;SDS011;29359;53.048;8.732;2024-03-02T09:34:15;18.42;;;11.73;;
43744;SDS011;29359;53.048;8.732;2024-03-02T09:36:18;19.30;;;11.13;;
43744;SDS011;29359;53.048;8.732;2024-03-02T09:38:20;13.60;;;10.18;;
43744;SDS011;29359;53.048;8.732;2024-03-02T09:40:22;13.18;;;9.82;;
43744;SDS011;29359;53.048;8.732;2024-03-02T09:42:24;13.70;;;9.95;;
43744;SDS011;29359;53.048;8.732;2024-03-02T09:44:27;14.50;;;10.25;;
43744;SDS011;29359;53.048;8.732;2024-03-02T09:46:29;13.32;;;10.90;;
43744;SDS011;29359;53.048;8.732;2024-03-02T09:48:31;13.90;;;10.18;;
43744;SDS011;29359;53.048;8.732;2024-03-02T09:50:32;14.68;;;10.07;;
43744;SDS011;29359;53.048;8.732;2024-03-02T09:52:34;13.15;;;8.77;;
43744;SDS011;29359;53.048;8.732;2024-03-02T09:54:38;11.02;;;8.35;;
43744;SDS011;29359;53.048;8.732;2024-03-02T09:56:40;10.07;;;7.93;;
43744;SDS011;29359;53.048;8.732;2024-03-02T09:58:41;11.48;;;8.40;;
43744;SDS011;29359;53.048;8.732;2024-03-02T10:00:45;14.40;;;8.52;;
43744;SDS011;29359;53.048;8.732;2024-03-02T10:02:47;9.90;;;8.05;;
43744;SDS011;29359;53.048;8.732;2024-03-02T10:04:50;13.02;;;7.50;;
43744;SDS011;29359;53.048;8.732;2024-03-02T10:07:08;10.13;;;7.88;;
43744;SDS011;29359;53.048;8.732;2024-03-02T10:09:13;11.02;;;7.93;;
43744;SDS011;29359;53.048;8.732;2024-03-02T10:11:29;11.43;;;7.88;;
43744;SDS011;29359;53.048;8.732;2024-03-02T10:13:32;10.68;;;8.02;;
43744;SDS011;29359;53.048;8.732;2024-03-02T10:15:36;9.50;;;7.45;;
43744;SDS011;29359;53.048;8.732;2024-03-02T10:17:39;10.60;;;7.38;;
43744;SDS011;29359;53.048;8.732;2024-03-02T10:19:42;10.82;;;7.40;;
43744;SDS011;29359;53.048;8.732;2024-03-02T10:21:48;9.65;;;7.50;;
43744;SDS011;29359;53.048;8.732;2024-03-02T10:23:51;13.10;;;7.72;;
43744;SDS011;29359;53.048;8.732;2024-03-02T10:25:52;11.63;;;7.25;;
43744;SDS011;29359;53.048;8.732;2024-03-02T10:27:59;9.80;;;7.15;;
43744;SDS011;29359;53.048;8.732;2024-03-02T10:30:03;9.00;;;6.65;;
43744;SDS011;29359;53.048;8.732;2024-03-02T10:32:10;13.35;;;7.38;;
43744;SDS011;29359;53.048;8.732;2024-03-02T10:34:13;9.68;;;6.40;;
43744;SDS011;29359;53.048;8.732;2024-03-02T10:36:15;8.13;;;6.32;;
43744;SDS011;29359;53.048;8.732;2024-03-02T10:38:17;7.60;;;6.45;;
43744;SDS011;29359;53.048;8.732;2024-03-02T10:40:22;8.70;;;5.90;;
43744;SDS011;29359;53.048;8.732;2024-03-02T10:42:24;7.05;;;6.00;;
43744;SDS011;29359;53.048;8.732;2024-03-02T10:44:27;7.05;;;6.35;;
43744;SDS011;29359;53.048;8.732;2024-03-02T10:46:31;9.07;;;6.72;;
43744;SDS011;29359;53.048;8.732;2024-03-02T10:48:33;12.88;;;6.88;;
43744;SDS011;29359;53.048;8.732;2024-03-02T10:50:38;8.43;;;6.80;;
43744;SDS011;29359;53.048;8.732;2024-03-02T10:52:40;8.70;;;5.68;;
43744;SDS011;29359;53.048;8.732;2024-03-02T10:54:41;9.15;;;6.00;;
43744;SDS011;29359;53.048;8.732;2024-03-02T10:56:44;8.25;;;6.10;;
43744;SDS011;29359;53.048;8.732;2024-03-02T10:58:47;7.68;;;6.03;;
43744;SDS011;29359;53.048;8.732;2024-03-02T11:00:53;7.80;;;5.82;;
43744;SDS011;29359;53.048;8.732;2024-03-02T11:02:56;7.15;;;6.15;;
43744;SDS011;29359;53.048;8.732;2024-03-02T11:05:03;9.57;;;6.40;;
43744;SDS011;29359;53.048;8.732;2024-03-02T11:07:11;7.32;;;5.97;;
43744;SDS011;29359;53.048;8.732;2024-03-02T11:09:14;8.52;;;5.07;;
43744;SDS011;29359;53.048;8.732;2024-03-02T11:11:21;6.00;;;5.38;;
43744;SDS011;29359;53.048;8.732;2024-03-02T11:13:32;8.95;;;5.25;;
43744;SDS011;29359;53.048;8.732;2024-03-02T11:15:39;9.52;;;5.47;;
43744;SDS011;29359;53.048;8.732;2024-03-02T11:17:45;7.43;;;5.85;;
43744;SDS011;29359;53.048;8.732;2024-03-02T11:19:48;8.25;;;6.28;;
43744;SDS011;29359;53.048;8.732;2024-03-02T11:21:50;8.30;;;6.05;;
43744;SDS011;29359;53.048;8.732;2024-03-02T11:23:53;6.95;;;5.38;;
43744;SDS011;29359;53.048;8.732;2024-03-02T11:25:55;8.30;;;5.82;;
43744;SDS011;29359;53.048;8.732;2024-03-02T11:28:00;10.02;;;5.13;;
43744;SDS011;29359;53.048;8.732;2024-03-02T11:30:54;11.35;;;5.88;;
43744;SDS011;29359;53.048;8.732;2024-03-02T11:32:39;6.00;;;4.90;;
43744;SDS011;29359;53.048;8.732;2024-03-02T11:34:41;7.03;;;5.20;;
43744;SDS011;29359;53.048;8.732;2024-03-02T11:36:53;8.88;;;6.00;;
43744;SDS011;29359;53.048;8.732;2024-03-02T11:38:56;5.45;;;4.95;;
43744;SDS011;29359;53.048;8.732;2024-03-02T11:40:59;6.13;;;5.03;;
43744;SDS011;29359;53.048;8.732;2024-03-02T11:43:02;6.55;;;4.07;;
43744;SDS011;29359;53.048;8.732;2024-03-02T11:45:08;15.65;;;5.32;;
43744;SDS011;29359;53.048;8.732;2024-03-02T11:47:11;9.10;;;4.95;;
43744;SDS011;29359;53.048;8.732;2024-03-02T11:49:15;6.72;;;4.57;;
43744;SDS011;29359;53.048;8.732;2024-03-02T11:51:38;13.18;;;4.82;;
43744;SDS011;29359;53.048;8.732;2024-03-02T11:53:51;5.40;;;4.45;;
43744;SDS011;29359;53.048;8.732;2024-03-02T11:55:55;12.63;;;4.70;;
43744;SDS011;29359;53.048;8.732;2024-03-02T11:57:57;6.22;;;4.13;;
43744;SDS011;29359;53.048;8.732;2024-03-02T12:00:01;13.27;;;4.70;;
43744;SDS011;29359;53.048;8.732;2024-03-02T12:02:05;6.53;;;4.50;;
43744;SDS011;29359;53.048;8.732;2024-03-02T12:04:07;5.50;;;5.00;;
43744;SDS011;29359;53.048;8.732;2024-03-02T12:06:09;7.57;;;4.57;;
43744;SDS011;29359;53.048;8.732;2024-03-02T12:08:11;11.07;;;6.55;;
43744;SDS011;29359;53.048;8.732;2024-03-02T12:10:14;6.88;;;5.38;;